Feura Bush, NY (12067)

6:53 PM EDT on July 28, 2016 (GMT -0400)
Callanan's Corners | | Change Station

Elev 387 ft 42.53 °N, 73.89 °W | Updated 3 minutes ago

Overcast
Overcast
80.3 °F
Feels Like 85 °F
N
0.0
Wind Variable Wind from NNW
Gusts 0.0 mph

Today
High -- | Low -- °F
--% Chance of Precip.
Yesterday
High -- | Low -- °F
Precip. -- in
Pressure 29.85 in
Visibility 10.0 miles
Clouds Few 6000 ft
Scattered Clouds 7000 ft
Scattered Clouds 21000 ft
Overcast 26000 ft
Heat Index 85 °F
Dew Point 73 °F
Humidity 79%
Rainfall 0.23 in
Snow Depth Not available.
5:44 AM 8:19 PM
Waning Crescent, 28% visible
METAR KALB 282151Z 19004KT 10SM FEW060TCU SCT070 SCT210 OVC260 28/19 A2985 RMK AO2 SLP107 TCU E-SE CB DSNT E AND SE MOV NE VCSH NE-E AND SE T02830189
Pressure 29.85 in
Visibility 10.0 miles
Clouds Few 6000 ft
Scattered Clouds 7000 ft
Scattered Clouds 21000 ft
Overcast 26000 ft
Heat Index 85 °F
Dew Point 73 °F
Humidity 79%
Rainfall 0.23 in
Snow Depth Not available.
5:44 AM 8:19 PM
Waning Crescent, 28% visible
METAR KALB 282151Z 19004KT 10SM FEW060TCU SCT070 SCT210 OVC260 28/19 A2985 RMK AO2 SLP107 TCU E-SE CB DSNT E AND SE MOV NE VCSH NE-E AND SE T02830189

10-Day Weather Forecast

Almanac

Astronomy

Jul. 28, 2016 Rise Set
Actual Time
Civil Twilight
Nautical Twilight
Astronomical Twilight
Moon
Length of Visible Light
Length of Day
Tomorrow will be .
, % of the Moon is Illuminated

Today's Extremes

State Highs State Lows

Community

WunderPhotos

Upload Photos

1,928,220 photos uploaded!

WunderBlog® & News

Nearby

Air Quality

  Air Quality AQ Index Pollutant
Not available.

Snow Depth

Station Depth Elevation

Earthquake Activity

City Distance Mag. Time & Date
Minimum magnitude displayed is 2.5.

Coastal Water Temperatures

Place Temperature

Stations

Nearby Weather Stations

Station Location Temp. Windchill Dew Point Humidity Wind Precip. Elev Updated Type
                   

Watches & Warnings

There are currently no watches in effect.